createdAt,value
2019-05-18T00:01:35.876Z,99312.44
2019-05-18T00:04:04.736Z,99314.23
2019-05-18T00:06:33.281Z,99315.48
2019-05-18T00:09:01.884Z,99316.08
2019-05-18T00:11:30.401Z,99319.47
2019-05-18T00:13:59.394Z,99318.44
2019-05-18T00:16:28.340Z,99320.67
2019-05-18T00:18:56.862Z,99323.52
2019-05-18T00:21:25.394Z,99320.95
2019-05-18T00:23:54.524Z,99319.22
2019-05-18T00:26:23.031Z,99308.05
2019-05-18T00:28:51.581Z,99310.25
2019-05-18T00:31:20.319Z,99307.91
2019-05-18T00:33:48.825Z,99310.05
2019-05-18T00:36:17.347Z,99311.08
2019-05-18T00:38:45.933Z,99312.09
2019-05-18T00:41:14.433Z,99310.62
2019-05-18T00:43:43.048Z,99307.23
2019-05-18T00:46:11.573Z,99305.58
2019-05-18T00:48:40.084Z,99305.26
2019-05-18T00:51:08.613Z,99299.13
2019-05-18T00:53:37.116Z,99298.81
2019-05-18T00:56:05.799Z,99302.00
2019-05-18T00:58:34.811Z,99294.15
2019-05-18T01:01:03.324Z,99293.89
2019-05-18T01:03:31.903Z,99293.77
2019-05-18T01:06:00.453Z,99295.32
2019-05-18T01:08:28.970Z,99292.31
2019-05-18T01:10:57.850Z,99295.00
2019-05-18T01:13:26.358Z,99292.95
2019-05-18T01:15:54.855Z,99295.00
2019-05-18T01:18:23.357Z,99295.95
2019-05-18T01:20:52.113Z,99288.11
2019-05-18T01:23:20.630Z,99279.57
2019-05-18T01:25:49.139Z,99275.09
2019-05-18T01:28:17.742Z,99284.98
2019-05-18T01:30:46.466Z,99286.52
2019-05-18T01:33:15.014Z,99294.20
2019-05-18T01:35:44.185Z,99291.42
2019-05-18T01:38:13.004Z,99292.04
2019-05-18T01:40:41.852Z,99295.88
2019-05-18T01:43:10.678Z,99291.98
2019-05-18T01:45:39.189Z,99296.66
2019-05-18T01:48:14.191Z,99298.27
2019-05-18T01:50:37.957Z,99300.19
2019-05-18T01:53:06.470Z,99287.72
2019-05-18T01:55:34.970Z,99292.70
2019-05-18T01:58:03.554Z,99306.25
2019-05-18T02:00:32.101Z,99298.66
2019-05-18T02:03:00.605Z,99295.52
2019-05-18T02:05:29.103Z,99289.84
2019-05-18T02:07:57.771Z,99289.47
2019-05-18T02:10:26.287Z,99288.12
2019-05-18T02:12:55.136Z,99285.37
2019-05-18T02:15:23.879Z,99284.59
2019-05-18T02:17:52.415Z,99283.09
2019-05-18T02:20:21.572Z,99281.56
2019-05-18T02:22:50.075Z,99268.83
2019-05-18T02:25:18.668Z,99280.89
2019-05-18T02:27:47.201Z,99276.55
2019-05-18T02:30:17.522Z,99276.55
2019-05-18T02:32:45.984Z,99271.88
2019-05-18T02:35:14.503Z,99267.41
2019-05-18T02:37:43.005Z,99266.28
2019-05-18T02:40:11.500Z,99269.31
2019-05-18T02:42:39.997Z,99266.28
2019-05-18T02:45:08.592Z,99256.27
2019-05-18T02:47:37.106Z,99252.81
2019-05-18T02:50:05.661Z,99259.00
2019-05-18T02:52:34.162Z,99257.98
2019-05-18T02:55:02.938Z,99259.64
2019-05-18T02:57:31.710Z,99257.28
2019-05-18T03:00:00.626Z,99259.96
2019-05-18T03:02:29.150Z,99256.83
2019-05-18T03:04:57.947Z,99264.78
2019-05-18T03:07:26.448Z,99261.48
2019-05-18T03:09:54.954Z,99262.83
2019-05-18T03:12:23.566Z,99262.50
2019-05-18T03:14:52.070Z,99271.05
2019-05-18T03:17:20.579Z,99270.59
2019-05-18T03:19:49.087Z,99271.42
2019-05-18T03:22:17.817Z,99270.08
2019-05-18T03:24:46.331Z,99271.74
2019-05-18T03:27:15.165Z,99274.28
2019-05-18T03:29:43.685Z,99265.09
2019-05-18T03:32:12.183Z,99262.44
2019-05-18T03:34:40.703Z,99260.69
2019-05-18T03:37:09.179Z,99264.40
2019-05-18T03:39:37.721Z,99267.13
2019-05-18T03:42:06.483Z,99262.92
2019-05-18T03:44:34.984Z,99266.62
2019-05-18T03:47:04.094Z,99269.11
2019-05-18T03:49:32.840Z,99262.09
2019-05-18T03:52:01.345Z,99269.80
2019-05-18T03:54:29.834Z,99264.77
2019-05-18T03:56:58.664Z,99268.28
2019-05-18T03:59:27.277Z,99271.14
2019-05-18T04:01:55.760Z,99272.62
2019-05-18T04:04:24.617Z,99275.74
2019-05-18T04:06:53.103Z,99270.08
2019-05-18T04:09:21.617Z,99267.06
2019-05-18T04:11:50.113Z,99273.02
2019-05-18T04:14:18.871Z,99268.61
2019-05-18T04:16:47.703Z,99261.43
2019-05-18T04:19:16.617Z,99260.02
2019-05-18T04:21:45.121Z,99260.92
2019-05-18T04:24:13.616Z,99256.13
2019-05-18T04:26:42.143Z,99265.48
2019-05-18T04:29:10.653Z,99264.44
2019-05-18T04:31:39.183Z,99262.42
2019-05-18T04:34:07.692Z,99271.84
2019-05-18T04:36:36.177Z,99275.70
2019-05-18T04:39:06.191Z,99282.45
2019-05-18T04:41:34.769Z,99285.19
2019-05-18T04:44:03.289Z,99282.59
2019-05-18T04:46:31.791Z,99287.39
2019-05-18T04:49:00.296Z,99288.89
2019-05-18T04:51:28.803Z,99283.03
2019-05-18T04:53:57.282Z,99292.44
2019-05-18T04:56:26.172Z,99291.53
2019-05-18T04:58:54.664Z,99292.01
2019-05-18T05:01:23.520Z,99292.67
2019-05-18T05:03:52.004Z,99290.27
2019-05-18T05:06:20.500Z,99290.09
2019-05-18T05:08:49.232Z,99289.20
2019-05-18T05:11:17.724Z,99284.73
2019-05-18T05:13:46.509Z,99286.31
2019-05-18T05:16:15.059Z,99281.77
2019-05-18T05:18:43.557Z,99289.91
2019-05-18T05:21:12.396Z,99292.03
2019-05-18T05:23:40.885Z,99287.86
2019-05-18T05:26:09.392Z,99288.94
2019-05-18T05:28:38.252Z,99286.83
2019-05-18T05:31:07.032Z,99289.53
2019-05-18T05:33:35.532Z,99292.44
2019-05-18T05:36:04.461Z,99294.81
2019-05-18T05:38:32.956Z,99303.14
2019-05-18T05:41:01.922Z,99301.06
2019-05-18T05:43:30.421Z,99306.87
2019-05-18T05:45:58.909Z,99307.69
2019-05-18T05:48:27.421Z,99315.15
2019-05-18T05:50:56.353Z,99314.44
2019-05-18T05:53:24.863Z,99309.89
2019-05-18T05:55:53.619Z,99320.05
2019-05-18T05:58:22.242Z,99325.33
2019-05-18T06:00:50.727Z,99327.94
2019-05-18T06:03:19.553Z,99331.11
2019-05-18T06:05:48.037Z,99333.23
2019-05-18T06:08:16.548Z,99333.25
2019-05-18T06:10:45.607Z,99329.80
2019-05-18T06:13:14.409Z,99329.48
2019-05-18T06:15:43.155Z,99334.16
2019-05-18T06:18:12.536Z,99330.25
2019-05-18T06:20:51.167Z,99327.20
2019-05-18T06:23:11.276Z,99324.25
2019-05-18T06:25:39.769Z,99317.38
2019-05-18T06:28:08.327Z,99329.77
2019-05-18T06:30:36.915Z,99330.33
2019-05-18T06:33:05.408Z,99332.40
2019-05-18T06:35:34.168Z,99336.53
2019-05-18T06:38:02.942Z,99336.64
2019-05-18T06:40:31.472Z,99340.30
2019-05-18T06:42:59.954Z,99341.64
2019-05-18T06:45:28.481Z,99346.92
2019-05-18T06:47:56.985Z,99346.92
2019-05-18T06:50:29.620Z,99349.38
2019-05-18T06:52:58.472Z,99347.40
2019-05-18T06:55:27.074Z,99355.59
2019-05-18T06:57:56.824Z,99357.88
2019-05-18T07:00:25.383Z,99356.06
2019-05-18T07:02:53.892Z,99355.96
2019-05-18T07:05:22.705Z,99359.47
2019-05-18T07:07:51.324Z,99371.21
2019-05-18T07:10:20.396Z,99367.50
2019-05-18T07:12:48.917Z,99367.51
2019-05-18T07:15:17.445Z,99379.75
2019-05-18T07:17:45.971Z,99373.41
2019-05-18T07:20:14.507Z,99375.17
2019-05-18T07:22:42.990Z,99369.89
2019-05-18T07:25:11.492Z,99376.16
2019-05-18T07:27:40.257Z,99365.56
2019-05-18T07:30:09.038Z,99363.77
2019-05-18T07:32:37.701Z,99367.19
2019-05-18T07:35:06.328Z,99361.33
2019-05-18T07:37:34.903Z,99359.11
2019-05-18T07:40:03.448Z,99367.70
2019-05-18T07:42:32.609Z,99362.50
2019-05-18T07:45:01.549Z,99356.44
2019-05-18T07:47:30.107Z,99361.59
2019-05-18T07:49:58.602Z,99361.46
2019-05-18T07:52:27.677Z,99364.36
2019-05-18T07:54:56.222Z,99367.56
2019-05-18T07:57:24.948Z,99367.23
2019-05-18T07:59:53.441Z,99363.74
2019-05-18T08:02:21.962Z,99364.21
2019-05-18T08:04:50.429Z,99362.66
2019-05-18T08:07:18.934Z,99370.86
2019-05-18T08:09:47.426Z,99369.00
2019-05-18T08:12:16.372Z,99377.27
2019-05-18T08:14:44.943Z,99368.23
2019-05-18T08:17:13.437Z,99370.72
2019-05-18T08:19:41.950Z,99375.72
2019-05-18T08:22:10.492Z,99377.05
2019-05-18T08:24:38.977Z,99386.53
2019-05-18T08:27:07.760Z,99377.79
2019-05-18T08:29:36.230Z,99381.50
2019-05-18T08:32:04.735Z,99383.31
2019-05-18T08:34:33.224Z,99383.81
2019-05-18T08:37:01.729Z,99387.08
2019-05-18T08:39:30.297Z,99379.42
2019-05-18T08:41:58.882Z,99370.63
2019-05-18T08:44:27.375Z,99370.48
2019-05-18T08:46:55.929Z,99375.05
2019-05-18T08:49:24.787Z,99360.91
2019-05-18T08:52:06.184Z,99356.31
2019-05-18T08:54:23.548Z,99354.97
2019-05-18T08:56:52.041Z,99356.67
2019-05-18T08:59:20.531Z,99356.81
2019-05-18T09:01:49.061Z,99351.67
2019-05-18T09:04:17.865Z,99349.82
2019-05-18T09:06:46.451Z,99350.71
2019-05-18T09:09:15.225Z,99349.19
2019-05-18T09:11:44.040Z,99356.48
2019-05-18T09:14:12.539Z,99353.42
2019-05-18T09:16:41.042Z,99351.14
2019-05-18T09:19:09.545Z,99364.65
2019-05-18T09:21:38.043Z,99356.19
2019-05-18T09:24:06.569Z,99349.59
2019-05-18T09:26:35.057Z,99356.72
2019-05-18T09:29:03.637Z,99361.45
2019-05-18T09:31:32.133Z,99350.06
2019-05-18T09:34:00.618Z,99347.64
2019-05-18T09:36:29.121Z,99346.42
2019-05-18T09:38:57.691Z,99347.66
2019-05-18T09:41:26.907Z,99346.25
2019-05-18T09:43:55.431Z,99347.02
2019-05-18T09:46:24.222Z,99349.48
2019-05-18T09:48:52.820Z,99347.39
2019-05-18T09:51:21.567Z,99343.34
2019-05-18T09:53:51.890Z,99347.09
2019-05-18T09:56:20.613Z,99343.55
2019-05-18T09:58:49.131Z,99344.64
2019-05-18T10:01:17.906Z,99345.20
2019-05-18T10:03:46.393Z,99341.36
2019-05-18T10:06:14.883Z,99339.89
2019-05-18T10:08:43.648Z,99329.77
2019-05-18T10:11:12.141Z,99340.33
2019-05-18T10:13:40.638Z,99338.87
2019-05-18T10:16:09.153Z,99344.91
2019-05-18T10:18:37.692Z,99337.49
2019-05-18T10:21:06.532Z,99333.95
2019-05-18T10:23:35.028Z,99327.69
2019-05-18T10:26:03.534Z,99325.02
2019-05-18T10:31:14.856Z,99318.17
2019-05-18T10:33:43.738Z,99320.61
2019-05-18T10:36:12.499Z,99325.13
2019-05-18T10:38:41.240Z,99321.55
2019-05-18T10:41:09.987Z,99321.43
2019-05-18T10:43:38.481Z,99327.33
2019-05-18T10:46:07.071Z,99321.39
2019-05-18T10:48:35.564Z,99320.84
2019-05-18T10:51:05.638Z,99321.52
2019-05-18T10:53:34.372Z,99321.67
2019-05-18T10:56:02.864Z,99318.13
2019-05-18T10:58:31.393Z,99320.13
2019-05-18T11:00:59.879Z,99310.62
2019-05-18T11:03:28.385Z,99313.80
2019-05-18T11:05:57.179Z,99304.06
2019-05-18T11:08:25.659Z,99306.23
2019-05-18T11:10:54.253Z,99307.86
2019-05-18T11:13:22.823Z,99306.78
2019-05-18T11:15:51.322Z,99303.47
2019-05-18T11:18:19.807Z,99296.75
2019-05-18T11:20:48.315Z,99294.48
2019-05-18T11:23:16.877Z,99297.78
2019-05-18T11:25:45.378Z,99293.91
2019-05-18T11:28:13.959Z,99296.17
2019-05-18T11:30:42.816Z,99280.00
2019-05-18T11:33:11.306Z,99289.48
2019-05-18T11:35:39.940Z,99282.47
2019-05-18T11:38:08.437Z,99284.01
2019-05-18T11:40:36.942Z,99276.54
2019-05-18T11:43:05.447Z,99283.26
2019-05-18T11:45:34.224Z,99273.92
2019-05-18T11:48:02.755Z,99269.63
2019-05-18T11:50:31.529Z,99269.89
2019-05-18T11:53:00.026Z,99272.69
2019-05-18T11:55:28.619Z,99264.91
2019-05-18T11:57:57.144Z,99263.50
2019-05-18T12:00:25.658Z,99264.91
2019-05-18T12:02:54.154Z,99268.77
2019-05-18T12:05:22.696Z,99258.19
2019-05-18T12:07:51.865Z,99258.81
2019-05-18T12:10:20.401Z,99256.39
2019-05-18T12:12:49.015Z,99255.16
2019-05-18T12:15:17.518Z,99268.17
2019-05-18T12:17:46.681Z,99259.27
2019-05-18T12:20:16.221Z,99253.52
2019-05-18T12:22:44.760Z,99259.94
2019-05-18T12:25:13.305Z,99246.13
2019-05-18T12:27:41.927Z,99243.90
2019-05-18T12:30:10.801Z,99246.95
2019-05-18T12:32:39.574Z,99244.09
2019-05-18T12:35:09.023Z,99231.86
2019-05-18T12:37:37.537Z,99238.06
2019-05-18T12:40:06.227Z,99231.95
2019-05-18T12:42:35.035Z,99238.59
2019-05-18T12:45:03.978Z,99238.63
2019-05-18T12:47:32.475Z,99230.15
2019-05-18T12:50:00.977Z,99234.14
2019-05-18T12:52:29.733Z,99236.80
2019-05-18T12:54:58.480Z,99236.98
2019-05-18T12:57:26.999Z,99227.33
2019-05-18T12:59:55.817Z,99225.78
2019-05-18T13:02:24.325Z,99226.42
2019-05-18T13:04:52.824Z,99228.11
2019-05-18T13:07:21.365Z,99228.21
2019-05-18T13:09:49.881Z,99213.44
2019-05-18T13:12:18.426Z,99222.67
2019-05-18T13:14:46.932Z,99213.84
2019-05-18T13:17:15.517Z,99220.58
2019-05-18T13:19:49.534Z,99220.30
2019-05-18T13:22:18.038Z,99216.20
2019-05-18T13:24:47.124Z,99210.49
2019-05-18T13:27:15.668Z,99214.56
2019-05-18T13:29:44.247Z,99208.91
2019-05-18T13:32:13.089Z,99211.34
2019-05-18T13:34:41.583Z,99201.23
2019-05-18T13:37:10.093Z,99212.62
2019-05-18T13:39:39.182Z,99210.17
2019-05-18T13:42:07.689Z,99208.70
2019-05-18T13:44:38.107Z,99198.14
2019-05-18T13:47:06.407Z,99190.02
2019-05-18T13:49:34.971Z,99196.45
2019-05-18T13:52:03.572Z,99192.36
2019-05-18T13:54:32.418Z,99188.19
2019-05-18T13:57:00.922Z,99194.98
2019-05-18T13:59:29.417Z,99187.45
2019-05-18T14:01:58.381Z,99184.47
2019-05-18T14:04:26.889Z,99190.48
2019-05-18T14:06:55.667Z,99180.05
2019-05-18T14:09:24.459Z,99180.02
2019-05-18T14:11:53.203Z,99173.48
2019-05-18T14:14:21.742Z,99172.19
2019-05-18T14:16:50.490Z,99173.57
2019-05-18T14:19:19.001Z,99169.27
2019-05-18T14:21:47.496Z,99168.83
2019-05-18T14:24:16.002Z,99168.02
2019-05-18T14:26:44.500Z,99165.27
2019-05-18T14:29:13.345Z,99160.02
2019-05-18T14:31:41.858Z,99165.58
2019-05-18T14:34:10.454Z,99160.37
2019-05-18T14:36:38.944Z,99163.36
2019-05-18T14:39:07.452Z,99159.05
2019-05-18T14:41:35.982Z,99158.34
2019-05-18T14:44:05.060Z,99158.50
2019-05-18T14:46:33.577Z,99156.66
2019-05-18T14:49:02.097Z,99168.95
2019-05-18T14:51:30.877Z,99161.55
2019-05-18T14:53:59.384Z,99162.19
2019-05-18T14:56:27.880Z,99158.44
2019-05-18T14:58:56.808Z,99156.23
2019-05-18T15:01:25.380Z,99165.11
2019-05-18T15:03:54.166Z,99174.72
2019-05-18T15:06:23.124Z,99198.03
2019-05-18T15:08:51.948Z,99204.59
2019-05-18T15:11:20.542Z,99210.48
2019-05-18T15:13:49.489Z,99213.20
2019-05-18T15:16:18.319Z,99207.42
2019-05-18T15:18:47.198Z,99193.34
2019-05-18T15:21:15.972Z,99180.13
2019-05-18T15:23:44.842Z,99183.97
2019-05-18T15:26:13.627Z,99197.75
2019-05-18T15:28:42.147Z,99195.04
2019-05-18T15:31:10.642Z,99195.80
2019-05-18T15:33:39.141Z,99194.75
2019-05-18T15:36:07.982Z,99192.37
2019-05-18T15:38:36.540Z,99184.87
2019-05-18T15:41:05.033Z,99184.14
2019-05-18T15:43:33.515Z,99190.88
2019-05-18T15:46:02.016Z,99165.69
2019-05-18T15:48:30.526Z,99160.98
2019-05-18T15:50:59.418Z,99147.52
2019-05-18T15:53:28.586Z,99150.75
2019-05-18T15:56:05.319Z,99150.15
2019-05-18T15:58:27.286Z,99165.86
2019-05-18T16:00:55.864Z,99155.83
2019-05-18T16:03:24.714Z,99160.13
2019-05-18T16:05:53.567Z,99149.01
2019-05-18T16:08:22.365Z,99139.51
2019-05-18T16:10:50.867Z,99139.37
2019-05-18T16:13:19.668Z,99141.89
2019-05-18T16:15:48.169Z,99138.24
2019-05-18T16:18:16.740Z,99139.68
2019-05-18T16:20:45.233Z,99140.77
2019-05-18T16:23:13.725Z,99144.06
2019-05-18T16:25:42.213Z,99138.64
2019-05-18T16:28:11.029Z,99133.25
2019-05-18T16:30:39.820Z,99142.76
2019-05-18T16:33:08.317Z,99143.00
2019-05-18T16:35:36.805Z,99147.31
2019-05-18T16:38:05.606Z,99145.88
2019-05-18T16:40:34.092Z,99148.53
2019-05-18T16:43:02.626Z,99148.55
2019-05-18T16:45:31.173Z,99151.11
2019-05-18T16:47:59.770Z,99149.14
2019-05-18T16:50:28.256Z,99146.50
2019-05-18T16:52:56.759Z,99143.05
2019-05-18T16:55:25.252Z,99145.61
2019-05-18T16:57:53.784Z,99147.78
2019-05-18T17:00:22.266Z,99154.11
2019-05-18T17:02:51.044Z,99151.48
2019-05-18T17:05:19.517Z,99153.05
2019-05-18T17:07:48.016Z,99152.47
2019-05-18T17:10:16.614Z,99152.26
2019-05-18T17:12:45.106Z,99153.98
2019-05-18T17:15:13.604Z,99151.77
2019-05-18T17:17:43.293Z,99149.74
2019-05-18T17:20:11.766Z,99151.52
2019-05-18T17:22:40.266Z,99147.02
2019-05-18T17:25:08.770Z,99150.67
2019-05-18T17:27:37.572Z,99151.77
2019-05-18T17:30:06.439Z,99153.66
2019-05-18T17:32:35.165Z,99152.78
2019-05-18T17:35:03.855Z,99158.41
2019-05-18T17:37:32.684Z,99154.23
2019-05-18T17:40:01.418Z,99155.89
2019-05-18T17:42:29.900Z,99156.80
2019-05-18T17:44:58.458Z,99156.22
2019-05-18T17:47:29.510Z,99153.70
2019-05-18T17:49:57.220Z,99150.52
2019-05-18T17:52:25.723Z,99155.78
2019-05-18T17:54:54.233Z,99155.18
2019-05-18T17:57:22.713Z,99153.73
2019-05-18T17:59:51.558Z,99159.61
2019-05-18T18:02:20.047Z,99163.43
2019-05-18T18:04:49.128Z,99169.47
2019-05-18T18:07:17.612Z,99168.94
2019-05-18T18:09:46.122Z,99173.87
2019-05-18T18:12:14.616Z,99170.21
2019-05-18T18:14:43.120Z,99170.77
2019-05-18T18:17:11.952Z,99162.25
2019-05-18T18:19:40.449Z,99163.81
2019-05-18T18:22:08.952Z,99161.11
2019-05-18T18:24:37.445Z,99164.47
2019-05-18T18:27:05.956Z,99177.42
2019-05-18T18:29:34.445Z,99178.03
2019-05-18T18:32:02.971Z,99188.56
2019-05-18T18:34:31.446Z,99186.15
2019-05-18T18:36:59.994Z,99190.75
2019-05-18T18:39:28.492Z,99196.81
2019-05-18T18:41:57.292Z,99195.92
2019-05-18T18:44:25.804Z,99202.01
2019-05-18T18:46:54.298Z,99203.83
2019-05-18T18:49:22.803Z,99204.04
2019-05-18T18:51:51.379Z,99200.60
2019-05-18T18:54:19.861Z,99208.73
2019-05-18T18:56:48.699Z,99251.52
2019-05-18T18:59:17.197Z,99282.26
2019-05-18T19:01:45.710Z,99274.39
2019-05-18T19:04:14.295Z,99284.13
2019-05-18T19:06:42.881Z,99294.37
2019-05-18T19:09:11.369Z,99299.77
2019-05-18T19:11:40.113Z,99308.34
2019-05-18T19:14:08.613Z,99315.03
2019-05-18T19:16:37.392Z,99302.33
2019-05-18T19:19:05.915Z,99298.77
2019-05-18T19:21:34.718Z,99303.12
2019-05-18T19:24:03.289Z,99304.89
2019-05-18T19:26:31.795Z,99306.72
2019-05-18T19:29:00.601Z,99315.53
2019-05-18T19:31:29.411Z,99308.07
2019-05-18T19:33:57.952Z,99308.60
2019-05-18T19:36:26.531Z,99306.59
2019-05-18T19:38:55.281Z,99311.33
2019-05-18T19:41:23.787Z,99316.38
2019-05-18T19:43:52.391Z,99321.83
2019-05-18T19:46:20.880Z,99333.24
2019-05-18T19:48:49.376Z,99342.01
2019-05-18T19:51:17.865Z,99358.03
2019-05-18T19:53:46.368Z,99368.37
2019-05-18T19:56:14.860Z,99376.05
2019-05-18T19:58:43.645Z,99376.86
2019-05-18T20:01:12.159Z,99379.25
2019-05-18T20:03:40.967Z,99378.86
2019-05-18T20:06:09.464Z,99381.13
2019-05-18T20:08:38.021Z,99382.66
2019-05-18T20:11:06.456Z,99392.21
2019-05-18T20:13:34.953Z,99382.37
2019-05-18T20:16:03.767Z,99385.28
2019-05-18T20:18:32.516Z,99384.97
2019-05-18T20:21:00.997Z,99389.22
2019-05-18T20:23:29.826Z,99383.43
2019-05-18T20:25:58.417Z,99374.38
2019-05-18T20:28:26.919Z,99372.88
2019-05-18T20:30:55.403Z,99373.97
2019-05-18T20:33:24.467Z,99375.48
2019-05-18T20:35:53.183Z,99378.30
2019-05-18T20:38:21.691Z,99377.68
2019-05-18T20:40:50.164Z,99387.24
2019-05-18T20:43:18.655Z,99388.99
2019-05-18T20:45:47.396Z,99387.64
2019-05-18T20:48:16.999Z,99390.98
2019-05-18T20:50:45.541Z,99384.66
2019-05-18T20:53:14.022Z,99375.95
2019-05-18T20:55:42.525Z,99371.47
2019-05-18T20:58:11.016Z,99371.70
2019-05-18T21:00:39.519Z,99367.87
2019-05-18T21:03:08.328Z,99374.62
2019-05-18T21:05:36.823Z,99381.36
2019-05-18T21:08:05.324Z,99385.17
2019-05-18T21:10:33.900Z,99388.56
2019-05-18T21:13:02.415Z,99389.53
2019-05-18T21:15:30.915Z,99385.97
2019-05-18T21:17:59.422Z,99394.91
2019-05-18T21:20:28.213Z,99386.46
2019-05-18T21:22:56.708Z,99388.20
2019-05-18T21:25:25.501Z,99381.63
2019-05-18T21:27:53.975Z,99372.78
2019-05-18T21:30:22.469Z,99364.87
2019-05-18T21:32:50.949Z,99365.06
2019-05-18T21:35:19.438Z,99357.71
2019-05-18T21:37:47.929Z,99341.62
2019-05-18T21:40:16.458Z,99337.17
2019-05-18T21:42:45.261Z,99331.07
2019-05-18T21:45:13.756Z,99323.98
2019-05-18T21:47:42.269Z,99324.84
2019-05-18T21:50:10.832Z,99311.12
2019-05-18T21:52:41.835Z,99306.52
2019-05-18T21:55:09.923Z,99305.80
2019-05-18T21:57:38.434Z,99291.05
2019-05-18T22:00:06.987Z,99290.94
2019-05-18T22:02:35.561Z,99285.95
2019-05-18T22:05:04.122Z,99281.56
2019-05-18T22:07:32.615Z,99272.61
2019-05-18T22:10:01.151Z,99261.47
2019-05-18T22:12:29.921Z,99253.36
2019-05-18T22:14:58.399Z,99249.77
2019-05-18T22:17:27.160Z,99244.58
2019-05-18T22:19:55.722Z,99247.37
2019-05-18T22:22:24.224Z,99248.35
2019-05-18T22:24:52.706Z,99245.35
2019-05-18T22:27:21.194Z,99243.20
2019-05-18T22:29:49.702Z,99243.38
2019-05-18T22:32:18.230Z,99243.81
2019-05-18T22:34:46.725Z,99246.09
2019-05-18T22:37:15.210Z,99251.81
2019-05-18T22:39:43.692Z,99247.22
2019-05-18T22:42:12.733Z,99254.98
2019-05-18T22:44:41.547Z,99262.75
2019-05-18T22:47:10.296Z,99259.39
2019-05-18T22:49:38.785Z,99263.31
2019-05-18T22:52:07.277Z,99263.75
2019-05-18T22:54:35.877Z,99267.39
2019-05-18T22:57:04.355Z,99269.14
2019-05-18T22:59:32.853Z,99262.89
2019-05-18T23:02:01.346Z,99262.64
2019-05-18T23:04:30.555Z,99264.70
2019-05-18T23:06:59.029Z,99267.30
2019-05-18T23:09:27.617Z,99268.38
2019-05-18T23:11:56.578Z,99261.66
2019-05-18T23:14:25.351Z,99259.16
2019-05-18T23:16:53.857Z,99265.06
2019-05-18T23:19:22.725Z,99270.48
2019-05-18T23:21:51.216Z,99276.66
2019-05-18T23:24:19.716Z,99279.17
2019-05-18T23:26:48.207Z,99286.30
2019-05-18T23:29:16.739Z,99288.70
2019-05-18T23:31:45.224Z,99293.56
2019-05-18T23:34:14.041Z,99293.16
2019-05-18T23:36:42.812Z,99294.73
2019-05-18T23:39:11.309Z,99288.89
2019-05-18T23:41:39.806Z,99286.34
2019-05-18T23:44:08.572Z,99284.56
2019-05-18T23:46:37.104Z,99278.44
2019-05-18T23:49:10.746Z,99282.28
2019-05-18T23:51:36.160Z,99268.64
2019-05-18T23:54:04.690Z,99272.14
2019-05-18T23:56:33.478Z,99265.42
2019-05-18T23:59:02.021Z,99271.91
